createdAt,value
2022-12-31T00:01:52.897Z,37.74
2022-12-31T00:04:19.259Z,37.80
2022-12-31T00:06:45.608Z,37.75
2022-12-31T00:09:12.005Z,37.79
2022-12-31T00:11:38.382Z,37.80
2022-12-31T00:14:04.761Z,37.86
2022-12-31T00:16:31.181Z,37.87
2022-12-31T00:18:57.534Z,37.88
2022-12-31T00:21:25.118Z,37.94
2022-12-31T00:23:50.258Z,37.99
2022-12-31T00:26:16.631Z,37.98
2022-12-31T00:28:43.073Z,37.98
2022-12-31T00:31:09.542Z,38.01
2022-12-31T00:33:35.879Z,38.01
2022-12-31T00:36:02.251Z,38.06
2022-12-31T00:38:28.649Z,38.08
2022-12-31T00:40:56.023Z,38.13
2022-12-31T00:43:21.412Z,38.14
2022-12-31T00:45:48.743Z,38.15
2022-12-31T00:48:14.171Z,38.18
2022-12-31T00:50:40.519Z,38.17
2022-12-31T00:53:06.904Z,38.19
2022-12-31T00:55:33.250Z,38.21
2022-12-31T00:57:59.627Z,38.26
2022-12-31T01:00:25.963Z,38.24
2022-12-31T01:02:52.487Z,38.26
2022-12-31T01:05:18.723Z,38.28
2022-12-31T01:07:45.117Z,38.29
2022-12-31T01:10:11.508Z,38.31
2022-12-31T01:12:37.911Z,38.31
2022-12-31T01:15:04.260Z,38.33
2022-12-31T01:17:30.654Z,38.34
2022-12-31T01:19:56.992Z,38.33
2022-12-31T01:22:23.478Z,38.34
2022-12-31T01:24:49.822Z,38.39
2022-12-31T01:27:16.211Z,38.44
2022-12-31T01:29:42.556Z,38.40
2022-12-31T01:32:08.947Z,38.42
2022-12-31T01:34:35.330Z,38.47
2022-12-31T01:37:01.712Z,38.50
2022-12-31T01:39:28.082Z,38.48
2022-12-31T01:41:54.477Z,38.50
2022-12-31T01:44:20.824Z,38.55
2022-12-31T01:46:47.248Z,38.57
2022-12-31T01:49:13.587Z,38.57
2022-12-31T01:51:40.010Z,38.57
2022-12-31T01:54:06.366Z,38.61
2022-12-31T01:56:32.728Z,38.56
2022-12-31T01:58:59.080Z,38.56
2022-12-31T02:01:25.576Z,38.55
2022-12-31T02:03:51.864Z,38.61
2022-12-31T02:06:18.298Z,38.62
2022-12-31T02:08:44.645Z,38.61
2022-12-31T02:11:11.079Z,38.61
2022-12-31T02:13:37.422Z,38.59
2022-12-31T02:16:03.840Z,38.60
2022-12-31T02:18:30.169Z,38.51
2022-12-31T02:20:56.585Z,38.50
2022-12-31T02:23:22.960Z,38.49
2022-12-31T02:25:49.353Z,38.49
2022-12-31T02:28:15.698Z,38.47
2022-12-31T02:30:42.115Z,38.49
2022-12-31T02:33:08.467Z,38.51
2022-12-31T02:35:34.863Z,38.46
2022-12-31T02:38:01.225Z,38.41
2022-12-31T02:40:27.608Z,38.41
2022-12-31T02:42:55.753Z,38.42
2022-12-31T02:45:20.344Z,38.40
2022-12-31T02:47:46.724Z,38.40
2022-12-31T02:50:13.130Z,38.42
2022-12-31T02:52:39.481Z,38.43
2022-12-31T02:55:05.894Z,38.41
2022-12-31T02:57:32.241Z,38.43
2022-12-31T02:59:58.626Z,38.45
2022-12-31T03:02:25.113Z,38.42
2022-12-31T03:04:51.394Z,38.46
2022-12-31T03:07:17.735Z,38.49
2022-12-31T03:09:44.146Z,38.53
2022-12-31T03:12:10.510Z,38.55
2022-12-31T03:14:36.901Z,38.59
2022-12-31T03:17:03.249Z,38.59
2022-12-31T03:19:29.663Z,38.65
2022-12-31T03:21:56.011Z,38.68
2022-12-31T03:24:22.427Z,38.72
2022-12-31T03:26:48.781Z,38.67
2022-12-31T03:29:15.206Z,38.73
2022-12-31T03:31:41.627Z,38.70
2022-12-31T03:34:07.971Z,38.71
2022-12-31T03:36:34.335Z,38.84
2022-12-31T03:39:00.718Z,38.88
2022-12-31T03:41:27.068Z,38.87
2022-12-31T03:43:53.477Z,38.94
2022-12-31T03:46:19.872Z,38.95
2022-12-31T03:48:46.211Z,38.94
2022-12-31T03:51:12.569Z,38.97
2022-12-31T03:53:38.964Z,38.98
2022-12-31T03:56:05.323Z,38.96
2022-12-31T03:58:31.710Z,38.99
2022-12-31T04:00:58.178Z,39.02
2022-12-31T04:03:24.528Z,39.01
2022-12-31T04:05:50.816Z,39.05
2022-12-31T04:08:17.186Z,39.07
2022-12-31T04:10:43.576Z,39.12
2022-12-31T04:13:09.942Z,39.05
2022-12-31T04:15:36.334Z,39.09
2022-12-31T04:18:02.668Z,39.12
2022-12-31T04:20:29.061Z,39.11
2022-12-31T04:22:55.437Z,39.12
2022-12-31T04:25:21.831Z,39.17
2022-12-31T04:27:48.206Z,39.18
2022-12-31T04:30:14.597Z,39.18
2022-12-31T04:32:40.931Z,39.20
2022-12-31T04:35:07.346Z,39.18
2022-12-31T04:37:33.682Z,39.19
2022-12-31T04:40:05.455Z,39.19
2022-12-31T04:42:26.479Z,39.20
2022-12-31T04:44:52.879Z,39.21
2022-12-31T04:47:23.568Z,39.17
2022-12-31T04:49:45.643Z,39.22
2022-12-31T04:52:12.023Z,39.24
2022-12-31T04:54:38.411Z,39.23
2022-12-31T04:57:04.792Z,39.24
2022-12-31T04:59:31.173Z,39.23
2022-12-31T05:01:57.722Z,39.21
2022-12-31T05:04:23.903Z,39.17
2022-12-31T05:06:50.254Z,39.17
2022-12-31T05:09:16.668Z,39.16
2022-12-31T05:11:43.010Z,39.17
2022-12-31T05:14:09.400Z,39.18
2022-12-31T05:16:35.827Z,39.17
2022-12-31T05:19:02.150Z,39.21
2022-12-31T05:21:28.525Z,39.18
2022-12-31T05:23:55.063Z,39.19
2022-12-31T05:26:21.417Z,39.23
2022-12-31T05:28:47.816Z,39.21
2022-12-31T05:31:14.249Z,39.23
2022-12-31T05:33:40.596Z,39.23
2022-12-31T05:36:06.938Z,39.19
2022-12-31T05:38:33.321Z,39.23
2022-12-31T05:40:59.688Z,39.23
2022-12-31T05:43:26.107Z,39.23
2022-12-31T05:45:52.509Z,39.27
2022-12-31T05:48:18.922Z,39.26
2022-12-31T05:50:45.261Z,39.24
2022-12-31T05:53:11.680Z,39.25
2022-12-31T05:55:38.027Z,39.30
2022-12-31T05:58:05.721Z,39.31
2022-12-31T06:00:30.760Z,39.30
2022-12-31T06:02:57.310Z,39.32
2022-12-31T06:05:26.358Z,39.34
2022-12-31T06:07:49.895Z,39.21
2022-12-31T06:10:16.237Z,39.21
2022-12-31T06:12:42.621Z,39.11
2022-12-31T06:15:08.996Z,39.03
2022-12-31T06:17:35.387Z,38.97
2022-12-31T06:20:04.853Z,38.89
2022-12-31T06:22:28.165Z,38.80
2022-12-31T06:24:54.537Z,38.72
2022-12-31T06:27:20.914Z,38.65
2022-12-31T06:29:47.287Z,38.57
2022-12-31T06:32:13.677Z,38.37
2022-12-31T06:34:40.067Z,38.44
2022-12-31T06:37:06.484Z,38.26
2022-12-31T06:39:32.811Z,38.21
2022-12-31T06:42:00.433Z,38.08
2022-12-31T06:44:25.600Z,38.02
2022-12-31T06:46:52.096Z,37.93
2022-12-31T06:49:18.382Z,37.79
2022-12-31T06:51:44.748Z,37.82
2022-12-31T06:54:11.104Z,37.66
2022-12-31T06:56:37.520Z,37.63
2022-12-31T06:59:03.875Z,37.44
2022-12-31T07:01:30.345Z,37.48
2022-12-31T07:03:56.616Z,37.37
2022-12-31T07:06:22.998Z,37.27
2022-12-31T07:08:50.370Z,37.24
2022-12-31T07:11:15.761Z,37.16
2022-12-31T07:13:42.115Z,37.02
2022-12-31T07:16:08.572Z,36.92
2022-12-31T07:18:34.872Z,36.77
2022-12-31T07:21:01.259Z,36.71
2022-12-31T07:23:27.628Z,36.61
2022-12-31T07:25:54.015Z,36.55
2022-12-31T07:28:20.385Z,36.49
2022-12-31T07:30:46.785Z,36.41
2022-12-31T07:33:13.177Z,36.38
2022-12-31T07:35:39.587Z,36.29
2022-12-31T07:38:05.927Z,36.28
2022-12-31T07:40:33.558Z,36.22
2022-12-31T07:42:58.701Z,36.15
2022-12-31T07:45:25.126Z,36.08
2022-12-31T07:47:51.461Z,36.05
2022-12-31T07:50:17.908Z,35.98
2022-12-31T07:52:44.257Z,35.89
2022-12-31T07:55:10.695Z,35.89
2022-12-31T07:57:37.045Z,35.80
2022-12-31T08:00:03.441Z,35.73
2022-12-31T08:02:30.964Z,35.70
2022-12-31T08:04:56.207Z,35.63
2022-12-31T08:07:22.596Z,35.52
2022-12-31T08:09:48.980Z,35.53
2022-12-31T08:12:15.342Z,35.44
2022-12-31T08:26:48.190Z,33.99
2022-12-31T08:29:11.114Z,35.36
2022-12-31T08:31:37.542Z,35.35
2022-12-31T08:34:05.968Z,35.26
2022-12-31T08:36:30.270Z,35.25
2022-12-31T08:38:56.619Z,35.23
2022-12-31T08:41:23.012Z,35.27
2022-12-31T08:43:49.360Z,35.22
2022-12-31T08:46:15.833Z,35.14
2022-12-31T08:48:42.110Z,35.15
2022-12-31T08:51:08.502Z,35.18
2022-12-31T08:53:34.844Z,35.04
2022-12-31T08:56:01.227Z,35.08
2022-12-31T08:58:27.570Z,35.02
2022-12-31T09:00:54.049Z,34.95
2022-12-31T09:03:20.317Z,34.97
2022-12-31T09:05:46.701Z,34.90
2022-12-31T09:08:13.073Z,34.83
2022-12-31T09:10:39.485Z,34.78
2022-12-31T09:13:05.819Z,34.80
2022-12-31T09:15:32.250Z,34.76
2022-12-31T09:17:58.588Z,34.70
2022-12-31T09:20:24.989Z,34.66
2022-12-31T09:22:51.336Z,34.63
2022-12-31T09:25:17.756Z,34.57
2022-12-31T09:27:44.088Z,34.62
2022-12-31T09:30:10.522Z,34.57
2022-12-31T09:32:36.862Z,34.54
2022-12-31T09:35:03.280Z,34.48
2022-12-31T09:37:29.628Z,34.44
2022-12-31T09:39:56.006Z,34.43
2022-12-31T09:42:22.383Z,34.41
2022-12-31T09:44:48.768Z,34.32
2022-12-31T09:47:15.115Z,34.37
2022-12-31T09:49:41.632Z,34.32
2022-12-31T09:54:53.320Z,34.29
2022-12-31T09:57:19.652Z,34.33
2022-12-31T09:59:46.052Z,34.26
2022-12-31T10:02:12.603Z,34.23
2022-12-31T10:04:38.777Z,34.28
2022-12-31T10:07:05.126Z,34.23
2022-12-31T10:09:31.576Z,34.19
2022-12-31T10:11:57.921Z,34.16
2022-12-31T10:14:24.305Z,34.14
2022-12-31T10:16:50.695Z,34.12
2022-12-31T10:19:17.070Z,34.11
2022-12-31T10:21:43.463Z,34.04
2022-12-31T10:24:09.838Z,34.05
2022-12-31T10:26:36.173Z,33.98
2022-12-31T10:29:02.569Z,33.96
2022-12-31T10:31:28.899Z,33.94
2022-12-31T10:33:55.290Z,33.88
2022-12-31T10:36:21.639Z,33.85
2022-12-31T10:38:48.127Z,33.80
2022-12-31T10:41:14.457Z,33.85
2022-12-31T10:43:40.908Z,33.80
2022-12-31T10:46:07.287Z,33.78
2022-12-31T10:48:33.643Z,33.73
2022-12-31T10:51:00.018Z,33.72
2022-12-31T10:53:26.414Z,33.68
2022-12-31T10:55:52.786Z,33.63
2022-12-31T10:58:19.182Z,33.64
2022-12-31T11:00:45.517Z,33.62
2022-12-31T11:03:11.977Z,33.55
2022-12-31T11:05:38.380Z,33.55
2022-12-31T11:08:04.764Z,33.49
2022-12-31T11:10:31.099Z,33.48
2022-12-31T11:12:58.803Z,33.44
2022-12-31T11:15:23.856Z,33.40
2022-12-31T11:17:50.281Z,33.31
2022-12-31T11:20:16.618Z,33.30
2022-12-31T11:22:43.060Z,33.21
2022-12-31T11:25:09.373Z,33.20
2022-12-31T11:27:35.768Z,33.14
2022-12-31T11:30:02.105Z,33.12
2022-12-31T11:32:28.507Z,33.11
2022-12-31T11:34:54.859Z,33.06
2022-12-31T11:37:21.252Z,32.97
2022-12-31T11:39:47.622Z,32.98
2022-12-31T11:42:13.980Z,32.86
2022-12-31T11:44:40.363Z,32.79
2022-12-31T11:47:06.754Z,32.72
2022-12-31T11:49:33.088Z,32.67
2022-12-31T11:51:59.477Z,32.58
2022-12-31T11:54:25.819Z,32.55
2022-12-31T11:56:52.220Z,32.46
2022-12-31T11:59:19.893Z,32.42
2022-12-31T12:01:44.968Z,32.35
2022-12-31T12:04:11.358Z,32.28
2022-12-31T12:06:37.722Z,32.19
2022-12-31T12:09:04.070Z,32.12
2022-12-31T12:11:30.501Z,32.05
2022-12-31T12:13:56.845Z,31.93
2022-12-31T12:16:23.345Z,31.81
2022-12-31T12:18:49.635Z,31.70
2022-12-31T12:21:16.049Z,31.59
2022-12-31T12:23:42.427Z,31.59
2022-12-31T12:26:08.821Z,31.61
2022-12-31T12:28:38.396Z,31.55
2022-12-31T12:31:01.669Z,31.50
2022-12-31T12:33:28.001Z,31.48
2022-12-31T12:35:54.385Z,31.39
2022-12-31T12:38:20.755Z,30.98
2022-12-31T12:40:47.129Z,30.98
2022-12-31T12:43:13.506Z,31.30
2022-12-31T12:45:39.884Z,31.09
2022-12-31T12:48:06.259Z,31.09
2022-12-31T12:50:32.644Z,31.43
2022-12-31T12:52:59.733Z,31.43
2022-12-31T12:55:25.407Z,31.19
2022-12-31T12:57:51.743Z,31.13
2022-12-31T13:00:18.166Z,31.17
2022-12-31T13:02:44.522Z,31.15
2022-12-31T13:05:10.924Z,31.42
2022-12-31T13:07:37.259Z,31.18
2022-12-31T13:10:03.666Z,31.12
2022-12-31T13:12:48.984Z,31.13
2022-12-31T13:14:56.384Z,31.09
2022-12-31T13:17:22.730Z,30.97
2022-12-31T13:19:49.143Z,31.08
2022-12-31T13:22:15.471Z,30.89
2022-12-31T13:24:41.997Z,30.89
2022-12-31T13:27:08.337Z,30.82
2022-12-31T13:29:34.862Z,30.82
2022-12-31T13:32:01.248Z,30.96
2022-12-31T13:34:27.594Z,30.96
2022-12-31T13:36:53.924Z,30.95
2022-12-31T13:39:20.331Z,30.95
2022-12-31T13:41:46.665Z,30.98
2022-12-31T13:44:13.061Z,30.89
2022-12-31T13:46:39.391Z,30.89
2022-12-31T13:49:05.814Z,31.11
2022-12-31T13:51:32.155Z,31.11
2022-12-31T13:53:58.543Z,31.09
2022-12-31T13:56:25.971Z,31.04
2022-12-31T13:58:51.288Z,31.03
2022-12-31T14:01:17.710Z,31.03
2022-12-31T14:03:44.046Z,30.88
2022-12-31T14:06:10.384Z,30.88
2022-12-31T14:08:36.777Z,31.05
2022-12-31T14:11:03.107Z,31.18
2022-12-31T14:13:34.583Z,31.17
2022-12-31T14:15:55.886Z,31.17
2022-12-31T14:18:22.276Z,31.37
2022-12-31T14:20:48.625Z,31.38
2022-12-31T14:23:15.000Z,31.39
2022-12-31T14:25:41.363Z,31.46
2022-12-31T14:28:07.735Z,31.46
2022-12-31T14:30:34.103Z,31.52
2022-12-31T14:33:00.497Z,31.51
2022-12-31T14:35:26.849Z,31.52
2022-12-31T14:37:53.266Z,31.60
2022-12-31T14:40:19.612Z,31.66
2022-12-31T14:42:46.008Z,31.58
2022-12-31T14:45:12.337Z,31.63
2022-12-31T14:47:38.757Z,31.56
2022-12-31T14:50:05.103Z,31.72
2022-12-31T14:52:31.518Z,31.70
2022-12-31T14:54:57.847Z,31.67
2022-12-31T14:57:24.263Z,31.67
2022-12-31T14:59:50.609Z,31.72
2022-12-31T15:02:17.154Z,31.89
2022-12-31T15:04:43.397Z,31.89
2022-12-31T15:07:09.772Z,32.04
2022-12-31T15:09:36.153Z,31.89
2022-12-31T15:12:02.561Z,31.78
2022-12-31T15:14:33.702Z,31.81
2022-12-31T15:16:55.294Z,31.86
2022-12-31T15:19:21.689Z,31.84
2022-12-31T15:21:48.105Z,31.85
2022-12-31T15:24:14.450Z,31.86
2022-12-31T15:26:40.888Z,31.93
2022-12-31T15:29:07.221Z,31.93
2022-12-31T15:31:33.633Z,31.98
2022-12-31T15:33:59.957Z,32.00
2022-12-31T15:36:26.364Z,32.31
2022-12-31T15:38:52.722Z,32.31
2022-12-31T15:41:19.135Z,31.76
2022-12-31T15:43:45.473Z,31.76
2022-12-31T15:46:11.899Z,32.17
2022-12-31T15:48:38.202Z,32.17
2022-12-31T15:51:04.616Z,32.22
2022-12-31T15:53:30.982Z,32.31
2022-12-31T15:55:57.363Z,32.29
2022-12-31T15:58:23.699Z,32.37
2022-12-31T16:00:50.118Z,32.41
2022-12-31T16:03:16.629Z,32.45
2022-12-31T16:05:42.871Z,32.51
2022-12-31T16:08:09.206Z,32.57
2022-12-31T16:10:37.653Z,32.62
2022-12-31T16:13:02.015Z,32.63
2022-12-31T16:15:28.439Z,32.68
2022-12-31T16:17:54.773Z,32.75
2022-12-31T16:20:21.162Z,32.84
2022-12-31T16:22:47.501Z,32.86
2022-12-31T16:25:31.172Z,32.87
2022-12-31T16:27:40.273Z,32.96
2022-12-31T16:30:06.669Z,33.00
2022-12-31T16:32:33.027Z,33.07
2022-12-31T16:34:59.407Z,33.10
2022-12-31T16:37:25.779Z,33.00
2022-12-31T16:39:52.157Z,33.19
2022-12-31T16:42:18.523Z,33.26
2022-12-31T16:44:44.928Z,33.18
2022-12-31T16:47:11.275Z,33.30
2022-12-31T16:49:38.889Z,33.38
2022-12-31T16:52:04.082Z,33.28
2022-12-31T16:54:30.489Z,33.32
2022-12-31T16:56:56.833Z,33.36
2022-12-31T16:59:24.132Z,33.44
2022-12-31T17:01:49.705Z,33.48
2022-12-31T17:04:16.013Z,33.71
2022-12-31T17:06:42.359Z,33.71
2022-12-31T17:09:08.744Z,33.67
2022-12-31T17:11:35.117Z,33.74
2022-12-31T17:14:01.503Z,33.82
2022-12-31T17:16:27.897Z,33.97
2022-12-31T17:18:54.241Z,33.93
2022-12-31T17:21:20.592Z,33.92
2022-12-31T17:23:46.982Z,33.91
2022-12-31T17:26:13.354Z,34.03
2022-12-31T17:28:39.800Z,34.11
2022-12-31T17:31:06.191Z,34.10
2022-12-31T17:33:32.552Z,34.21
2022-12-31T17:35:58.882Z,34.23
2022-12-31T17:38:25.300Z,34.30
2022-12-31T17:40:52.431Z,34.32
2022-12-31T17:43:18.117Z,34.34
2022-12-31T17:45:44.492Z,34.34
2022-12-31T17:48:10.884Z,34.39
2022-12-31T17:50:37.310Z,34.41
2022-12-31T17:53:03.709Z,34.46
2022-12-31T17:55:30.044Z,34.55
2022-12-31T17:57:56.462Z,34.53
2022-12-31T18:00:22.818Z,34.61
2022-12-31T18:02:49.243Z,34.58
2022-12-31T18:05:15.574Z,34.68
2022-12-31T18:07:41.957Z,34.72
2022-12-31T18:10:08.346Z,34.74
2022-12-31T18:12:34.714Z,34.78
2022-12-31T18:15:01.062Z,34.83
2022-12-31T18:17:27.445Z,34.87
2022-12-31T18:20:04.876Z,34.90
2022-12-31T18:22:20.211Z,34.95
2022-12-31T18:24:46.561Z,34.94
2022-12-31T18:27:12.979Z,34.99
2022-12-31T18:29:39.353Z,35.04
2022-12-31T18:32:05.743Z,35.10
2022-12-31T18:34:32.094Z,35.11
2022-12-31T18:36:58.481Z,35.11
2022-12-31T18:39:24.832Z,35.16
2022-12-31T18:41:51.221Z,35.18
2022-12-31T18:44:17.557Z,35.27
2022-12-31T18:46:43.961Z,35.04
2022-12-31T18:49:10.347Z,35.04
2022-12-31T18:51:36.728Z,35.31
2022-12-31T18:54:03.103Z,35.30
2022-12-31T18:56:29.459Z,35.43
2022-12-31T18:58:55.888Z,35.43
2022-12-31T19:01:22.321Z,35.46
2022-12-31T19:03:48.658Z,35.51
2022-12-31T19:06:16.207Z,35.50
2022-12-31T19:08:41.419Z,35.51
2022-12-31T19:11:07.764Z,35.58
2022-12-31T19:13:34.186Z,35.65
2022-12-31T19:16:00.556Z,35.57
2022-12-31T19:18:26.930Z,35.62
2022-12-31T19:20:53.308Z,35.72
2022-12-31T19:23:19.775Z,35.79
2022-12-31T19:25:46.049Z,35.75
2022-12-31T19:28:12.423Z,35.81
2022-12-31T19:30:38.767Z,35.87
2022-12-31T19:33:05.153Z,35.85
2022-12-31T19:35:31.509Z,35.90
2022-12-31T19:37:57.921Z,35.89
2022-12-31T19:40:24.281Z,35.93
2022-12-31T19:42:50.704Z,35.95
2022-12-31T19:45:17.092Z,36.03
2022-12-31T19:47:43.463Z,36.03
2022-12-31T19:50:09.834Z,36.01
2022-12-31T19:52:36.272Z,36.07
2022-12-31T19:55:02.612Z,36.10
2022-12-31T19:57:29.008Z,36.17
2022-12-31T19:59:55.352Z,36.15
2022-12-31T20:02:21.941Z,36.22
2022-12-31T20:04:48.102Z,36.23
2022-12-31T20:07:14.486Z,36.30
2022-12-31T20:09:40.875Z,36.30
2022-12-31T20:12:07.288Z,36.29
2022-12-31T20:14:34.611Z,36.29
2022-12-31T20:17:00.099Z,36.35
2022-12-31T20:19:26.394Z,36.35
2022-12-31T20:21:55.230Z,36.34
2022-12-31T20:24:21.569Z,36.41
2022-12-31T20:26:48.004Z,36.41
2022-12-31T20:29:14.341Z,36.41
2022-12-31T20:31:40.755Z,36.38
2022-12-31T20:34:07.188Z,36.45
2022-12-31T20:36:33.522Z,36.52
2022-12-31T20:38:59.941Z,36.55
2022-12-31T20:41:26.334Z,36.52
2022-12-31T20:43:52.703Z,36.57
2022-12-31T20:46:19.148Z,36.53
2022-12-31T20:48:45.458Z,36.60
2022-12-31T20:51:11.853Z,36.62
2022-12-31T20:53:38.257Z,36.64
2022-12-31T20:56:04.693Z,36.68
2022-12-31T20:58:31.037Z,36.69
2022-12-31T21:00:57.627Z,36.68
2022-12-31T21:04:03.184Z,36.72
2022-12-31T21:05:50.354Z,36.78
2022-12-31T21:08:16.551Z,36.72
2022-12-31T21:10:42.963Z,36.77
2022-12-31T21:13:09.305Z,36.74
2022-12-31T21:15:35.765Z,36.76
2022-12-31T21:18:02.074Z,36.79
2022-12-31T21:20:28.473Z,36.77
2022-12-31T21:22:54.821Z,36.83
2022-12-31T21:25:21.211Z,36.88
2022-12-31T21:27:47.542Z,36.85
2022-12-31T21:30:19.062Z,36.87
2022-12-31T21:32:40.306Z,36.81
2022-12-31T21:35:41.233Z,36.85
2022-12-31T21:37:58.802Z,36.90
2022-12-31T21:39:59.498Z,36.92
2022-12-31T21:42:25.879Z,36.92
2022-12-31T21:44:52.266Z,36.94
2022-12-31T21:47:36.496Z,36.96
2022-12-31T21:49:45.034Z,36.99
2022-12-31T21:52:11.407Z,36.99
2022-12-31T21:54:37.872Z,37.02
2022-12-31T21:57:04.247Z,37.05
2022-12-31T21:59:30.656Z,37.07
2022-12-31T22:01:57.147Z,37.10
2022-12-31T22:05:00.292Z,37.11
2022-12-31T22:06:49.768Z,37.14
2022-12-31T22:09:16.171Z,37.13
2022-12-31T22:11:42.501Z,37.14
2022-12-31T22:14:08.899Z,37.16
2022-12-31T22:16:35.298Z,37.25
2022-12-31T22:19:01.660Z,37.22
2022-12-31T22:21:28.013Z,37.17
2022-12-31T22:23:54.418Z,37.29
2022-12-31T22:26:20.741Z,37.28
2022-12-31T22:28:47.127Z,37.25
2022-12-31T22:31:13.580Z,37.24
2022-12-31T22:33:39.861Z,37.27
2022-12-31T22:36:07.183Z,37.30
2022-12-31T22:38:32.636Z,37.33
2022-12-31T22:40:58.975Z,37.32
2022-12-31T22:43:25.368Z,37.35
2022-12-31T22:45:51.730Z,37.39
2022-12-31T22:48:18.130Z,37.37
2022-12-31T22:50:44.460Z,37.37
2022-12-31T22:53:11.918Z,37.38
2022-12-31T22:55:38.260Z,37.37
2022-12-31T22:58:04.672Z,37.43
2022-12-31T23:00:31.007Z,37.47
2022-12-31T23:02:57.494Z,37.50
2022-12-31T23:05:23.810Z,37.49
2022-12-31T23:07:50.225Z,37.51
2022-12-31T23:10:16.573Z,37.52
2022-12-31T23:12:42.990Z,37.50
2022-12-31T23:15:09.326Z,37.52
2022-12-31T23:17:35.710Z,37.54
2022-12-31T23:20:02.085Z,37.58
2022-12-31T23:22:28.478Z,37.55
2022-12-31T23:24:54.815Z,37.62
2022-12-31T23:27:21.197Z,37.59
2022-12-31T23:29:47.897Z,37.68
2022-12-31T23:32:13.945Z,37.67
2022-12-31T23:34:40.314Z,37.67
2022-12-31T23:37:06.722Z,37.69
2022-12-31T23:39:33.063Z,37.69
2022-12-31T23:41:59.438Z,37.68
2022-12-31T23:44:25.786Z,37.72
2022-12-31T23:46:52.292Z,37.76
2022-12-31T23:49:18.618Z,37.76
2022-12-31T23:51:45.016Z,37.77
2022-12-31T23:54:11.360Z,37.78
2022-12-31T23:56:37.764Z,37.81
2022-12-31T23:59:04.111Z,37.83
